createdAt,value
2018-02-20T00:00:49.530Z,25.58
2018-02-20T00:03:16.992Z,22.60
2018-02-20T00:05:44.457Z,25.85
2018-02-20T00:08:11.926Z,26.17
2018-02-20T00:10:39.385Z,24.17
2018-02-20T00:13:06.850Z,27.33
2018-02-20T00:15:34.302Z,24.15
2018-02-20T00:18:01.773Z,30.45
2018-02-20T00:20:29.235Z,27.20
2018-02-20T00:23:03.482Z,24.63
2018-02-20T00:28:21.822Z,22.70
2018-02-20T00:30:50.045Z,23.35
2018-02-20T00:33:17.515Z,23.87
2018-02-20T00:35:44.970Z,33.15
2018-02-20T00:38:12.424Z,30.20
2018-02-20T00:40:39.895Z,25.50
2018-02-20T00:43:07.355Z,29.60
2018-02-20T00:45:34.819Z,27.42
2018-02-20T00:48:02.272Z,28.62
2018-02-20T00:50:29.752Z,29.95
2018-02-20T00:52:57.213Z,25.15
2018-02-20T00:55:24.677Z,25.42
2018-02-20T00:57:52.912Z,25.15
2018-02-20T01:00:20.414Z,24.58
2018-02-20T01:02:48.647Z,24.92
2018-02-20T01:05:16.104Z,21.83
2018-02-20T01:07:43.564Z,23.08
2018-02-20T01:10:11.030Z,22.52
2018-02-20T01:12:38.499Z,22.73
2018-02-20T01:15:05.964Z,21.60
2018-02-20T01:17:33.415Z,29.48
2018-02-20T01:20:00.912Z,24.00
2018-02-20T01:22:28.374Z,24.60
2018-02-20T01:24:55.845Z,24.95
2018-02-20T01:27:23.303Z,25.50
2018-02-20T01:29:50.768Z,26.95
2018-02-20T01:32:18.226Z,26.20
2018-02-20T01:34:45.700Z,25.35
2018-02-20T01:37:13.159Z,26.17
2018-02-20T01:39:40.628Z,23.40
2018-02-20T01:42:08.101Z,26.85
2018-02-20T01:44:35.560Z,25.25
2018-02-20T01:47:03.035Z,22.90
2018-02-20T01:49:31.264Z,24.40
2018-02-20T01:51:58.728Z,21.77
2018-02-20T01:54:26.188Z,22.58
2018-02-20T01:56:53.659Z,21.37
2018-02-20T01:59:21.900Z,23.85
2018-02-20T02:01:49.373Z,22.67
2018-02-20T02:04:16.834Z,22.13
2018-02-20T02:06:44.295Z,22.98
2018-02-20T02:09:11.759Z,26.83
2018-02-20T02:11:39.224Z,23.48
2018-02-20T02:14:06.685Z,24.85
2018-02-20T02:16:34.152Z,22.10
2018-02-20T02:19:01.612Z,23.52
2018-02-20T02:21:29.075Z,23.12
2018-02-20T02:23:57.297Z,20.12
2018-02-20T02:26:24.749Z,22.92
2018-02-20T02:28:52.205Z,21.33
2018-02-20T02:31:19.673Z,24.63
2018-02-20T02:33:47.143Z,22.42
2018-02-20T02:36:14.597Z,23.17
2018-02-20T02:38:42.054Z,29.80
2018-02-20T02:41:09.535Z,26.92
2018-02-20T02:43:37.011Z,23.45
2018-02-20T02:46:05.238Z,18.50
2018-02-20T02:48:32.716Z,19.95
2018-02-20T02:51:00.171Z,21.70
2018-02-20T02:53:27.631Z,21.58
2018-02-20T02:55:55.080Z,19.23
2018-02-20T02:58:22.541Z,25.30
2018-02-20T03:00:50.005Z,21.62
2018-02-20T03:03:17.469Z,23.27
2018-02-20T03:05:44.922Z,22.95
2018-02-20T03:08:12.392Z,18.12
2018-02-20T03:10:39.841Z,22.10
2018-02-20T03:13:07.313Z,22.10
2018-02-20T03:15:34.781Z,22.37
2018-02-20T03:18:02.236Z,23.02
2018-02-20T03:20:30.469Z,25.02
2018-02-20T03:22:57.933Z,25.52
2018-02-20T03:25:25.398Z,24.45
2018-02-20T03:27:52.873Z,20.50
2018-02-20T03:30:20.325Z,23.83
2018-02-20T03:32:47.803Z,27.35
2018-02-20T03:35:16.022Z,26.58
2018-02-20T03:38:04.944Z,25.73
2018-02-20T03:40:33.186Z,21.30
2018-02-20T03:43:00.639Z,28.02
2018-02-20T03:45:28.189Z,27.58
2018-02-20T03:47:55.745Z,25.90
2018-02-20T03:50:23.242Z,22.62
2018-02-20T03:52:51.561Z,22.30
2018-02-20T03:55:19.188Z,22.40
2018-02-20T03:57:48.204Z,28.35
2018-02-20T04:00:16.504Z,22.98
2018-02-20T04:02:44.093Z,27.00
2018-02-20T04:05:12.471Z,33.47
2018-02-20T04:07:39.942Z,24.70
2018-02-20T04:10:07.498Z,24.52
2018-02-20T04:12:35.063Z,24.58
2018-02-20T04:15:02.635Z,27.10
2018-02-20T04:17:30.131Z,26.33
2018-02-20T04:19:57.747Z,24.52
2018-02-20T04:22:25.258Z,28.33
2018-02-20T04:24:53.593Z,21.23
2018-02-20T04:27:21.131Z,22.25
2018-02-20T04:29:48.698Z,22.00
2018-02-20T04:32:16.278Z,25.10
2018-02-20T04:34:43.759Z,25.35
2018-02-20T04:37:11.986Z,27.75
2018-02-20T04:39:39.459Z,27.85
2018-02-20T04:42:06.930Z,25.92
2018-02-20T04:44:35.163Z,23.48
2018-02-20T04:47:02.635Z,27.95
2018-02-20T04:49:30.101Z,26.02
2018-02-20T04:51:57.577Z,24.20
2018-02-20T04:54:25.118Z,28.50
2018-02-20T04:56:52.544Z,26.70
2018-02-20T04:59:20.770Z,21.37
2018-02-20T05:01:48.278Z,24.02
2018-02-20T05:04:15.714Z,22.60
2018-02-20T05:06:43.194Z,21.35
2018-02-20T05:09:10.663Z,32.28
2018-02-20T05:11:38.133Z,28.70
2018-02-20T05:14:05.611Z,34.92
2018-02-20T05:16:33.130Z,28.80
2018-02-20T05:19:01.311Z,25.85
2018-02-20T05:21:28.794Z,26.55
2018-02-20T05:23:56.245Z,27.87
2018-02-20T05:26:23.726Z,27.62
2018-02-20T05:28:51.191Z,25.02
2018-02-20T05:31:19.455Z,29.25
2018-02-20T05:33:46.926Z,26.83
2018-02-20T05:36:15.159Z,26.15
2018-02-20T05:38:42.640Z,33.15
2018-02-20T05:41:10.578Z,34.60
2018-02-20T05:43:38.077Z,31.75
2018-02-20T05:46:05.538Z,27.13
2018-02-20T05:48:33.002Z,28.65
2018-02-20T05:51:01.225Z,26.77
2018-02-20T05:53:28.706Z,26.98
2018-02-20T05:55:56.170Z,28.20
2018-02-20T05:58:23.657Z,36.25
2018-02-20T06:00:51.884Z,25.45
2018-02-20T06:03:19.364Z,30.30
2018-02-20T06:05:46.833Z,25.75
2018-02-20T06:08:14.310Z,24.90
2018-02-20T06:10:42.544Z,26.90
2018-02-20T06:13:10.014Z,26.60
2018-02-20T06:15:37.481Z,28.60
2018-02-20T06:18:04.951Z,28.17
2018-02-20T06:20:33.192Z,34.92
2018-02-20T06:23:00.653Z,31.95
2018-02-20T06:25:28.123Z,25.17
2018-02-20T06:27:55.586Z,24.67
2018-02-20T06:30:23.085Z,25.20
2018-02-20T06:32:50.563Z,26.10
2018-02-20T06:35:18.030Z,27.75
2018-02-20T06:37:45.486Z,26.83
2018-02-20T06:40:12.964Z,29.87
2018-02-20T06:42:42.350Z,25.08
2018-02-20T06:45:09.813Z,33.42
2018-02-20T06:47:37.293Z,30.23
2018-02-20T06:50:04.772Z,29.58
2018-02-20T06:52:32.999Z,36.67
2018-02-20T06:55:00.469Z,32.92
2018-02-20T06:57:27.932Z,28.35
2018-02-20T06:59:55.416Z,29.27
2018-02-20T07:02:22.880Z,26.62
2018-02-20T07:04:51.125Z,26.65
2018-02-20T07:07:18.593Z,30.42
2018-02-20T07:09:46.068Z,26.17
2018-02-20T07:12:14.294Z,32.00
2018-02-20T07:14:41.771Z,31.15
2018-02-20T07:17:09.245Z,36.30
2018-02-20T07:19:36.709Z,32.03
2018-02-20T07:22:04.178Z,28.75
2018-02-20T07:24:32.413Z,32.60
2018-02-20T07:26:59.874Z,27.95
2018-02-20T07:29:27.344Z,28.65
2018-02-20T07:31:54.811Z,25.42
2018-02-20T07:34:22.284Z,32.35
2018-02-20T07:36:49.765Z,22.02
2018-02-20T07:39:17.224Z,27.05
2018-02-20T07:41:44.693Z,34.13
2018-02-20T07:44:12.158Z,29.50
2018-02-20T07:46:39.623Z,34.38
2018-02-20T07:49:07.101Z,33.20
2018-02-20T07:51:34.584Z,35.72
2018-02-20T07:54:02.073Z,27.58
2018-02-20T07:56:29.536Z,33.67
2018-02-20T07:58:57.004Z,35.33
2018-02-20T08:01:24.491Z,34.78
2018-02-20T08:03:51.953Z,29.48
2018-02-20T08:06:20.246Z,31.60
2018-02-20T08:08:47.711Z,30.65
2018-02-20T08:11:15.165Z,30.52
2018-02-20T08:13:42.658Z,33.53
2018-02-20T08:16:10.135Z,37.60
2018-02-20T08:18:37.638Z,35.08
2018-02-20T08:21:05.088Z,36.75
2018-02-20T08:23:32.560Z,34.78
2018-02-20T08:26:00.023Z,42.95
2018-02-20T08:28:28.266Z,32.30
2018-02-20T08:30:55.732Z,40.25
2018-02-20T08:33:23.202Z,38.40
2018-02-20T08:35:50.672Z,41.42
2018-02-20T08:38:18.909Z,43.40
2018-02-20T08:40:46.386Z,44.35
2018-02-20T08:43:13.866Z,35.95
2018-02-20T08:45:42.095Z,38.40
2018-02-20T08:48:09.575Z,40.38
2018-02-20T08:50:37.097Z,36.42
2018-02-20T08:53:05.317Z,39.78
2018-02-20T08:55:32.796Z,40.50
2018-02-20T08:58:01.034Z,41.40
2018-02-20T09:00:28.519Z,43.58
2018-02-20T09:02:56.746Z,39.17
2018-02-20T09:05:24.222Z,40.45
2018-02-20T09:07:51.683Z,43.92
2018-02-20T09:10:19.165Z,39.78
2018-02-20T09:12:46.633Z,43.03
2018-02-20T09:15:14.872Z,44.25
2018-02-20T09:17:42.336Z,39.97
2018-02-20T09:20:09.810Z,40.53
2018-02-20T09:22:37.283Z,38.17
2018-02-20T09:25:05.527Z,37.47
2018-02-20T09:27:32.988Z,38.92
2018-02-20T09:30:00.471Z,37.38
2018-02-20T09:32:28.704Z,38.42
2018-02-20T09:34:56.182Z,44.05
2018-02-20T09:37:23.642Z,41.72
2018-02-20T09:39:51.125Z,41.85
2018-02-20T09:42:19.352Z,39.95
2018-02-20T09:44:46.833Z,38.20
2018-02-20T09:47:14.312Z,36.00
2018-02-20T09:49:42.570Z,38.53
2018-02-20T09:52:10.048Z,35.05
2018-02-20T09:54:38.279Z,35.65
2018-02-20T09:57:05.756Z,36.47
2018-02-20T09:59:33.225Z,35.60
2018-02-20T10:02:00.708Z,34.72
2018-02-20T10:04:28.984Z,37.13
2018-02-20T10:06:57.230Z,34.40
2018-02-20T10:09:30.737Z,30.08
2018-02-20T10:11:58.221Z,32.97
2018-02-20T10:14:27.651Z,27.83
2018-02-20T10:16:55.146Z,28.03
2018-02-20T10:19:22.640Z,35.00
2018-02-20T10:21:50.884Z,32.27
2018-02-20T10:24:18.352Z,38.97
2018-02-20T10:26:45.831Z,42.80
2018-02-20T10:29:14.069Z,39.67
2018-02-20T10:31:41.558Z,38.55
2018-02-20T10:34:11.815Z,39.63
2018-02-20T10:36:39.308Z,42.13
2018-02-20T10:39:06.780Z,40.30
2018-02-20T10:41:34.246Z,34.70
2018-02-20T10:44:01.708Z,40.07
2018-02-20T10:46:29.179Z,43.07
2018-02-20T10:48:56.677Z,42.30
2018-02-20T10:51:24.975Z,37.73
2018-02-20T10:53:52.480Z,39.67
2018-02-20T10:56:20.010Z,38.27
2018-02-20T10:58:47.479Z,46.13
2018-02-20T11:01:14.956Z,39.23
2018-02-20T11:03:43.212Z,38.20
2018-02-20T11:06:10.695Z,40.03
2018-02-20T11:08:38.215Z,39.60
2018-02-20T11:11:05.711Z,40.10
2018-02-20T11:13:34.001Z,39.27
2018-02-20T11:16:01.476Z,47.87
2018-02-20T11:18:28.954Z,40.37
2018-02-20T11:20:56.435Z,37.07
2018-02-20T11:23:24.114Z,39.33
2018-02-20T11:25:53.664Z,34.50
2018-02-20T11:28:21.280Z,42.67
2018-02-20T11:30:48.824Z,32.47
2018-02-20T11:33:17.228Z,37.33
2018-02-20T11:35:44.751Z,36.70
2018-02-20T11:38:13.186Z,38.60
2018-02-20T11:40:41.631Z,33.77
2018-02-20T11:43:09.269Z,35.60
2018-02-20T11:45:36.889Z,34.07
2018-02-20T11:48:04.518Z,33.40
2018-02-20T11:50:32.057Z,33.53
2018-02-20T11:52:59.611Z,35.80
2018-02-20T11:55:27.212Z,36.47
2018-02-20T11:57:54.826Z,33.70
2018-02-20T12:00:22.745Z,37.07
2018-02-20T12:02:51.236Z,38.93
2018-02-20T12:05:19.792Z,38.63
2018-02-20T12:07:47.452Z,34.37
2018-02-20T12:10:15.012Z,34.90
2018-02-20T12:12:43.136Z,36.53
2018-02-20T12:15:13.476Z,36.83
2018-02-20T12:17:43.129Z,36.20
2018-02-20T12:20:30.965Z,42.30
2018-02-20T12:23:13.163Z,35.17
2018-02-20T12:25:40.691Z,28.93
2018-02-20T12:28:08.224Z,30.17
2018-02-20T12:30:35.838Z,32.30
2018-02-20T12:33:03.402Z,30.90
2018-02-20T12:35:30.945Z,31.20
2018-02-20T12:37:58.511Z,31.10
2018-02-20T12:40:26.027Z,29.93
2018-02-20T12:42:53.717Z,27.40
2018-02-20T12:45:21.245Z,24.90
2018-02-20T12:47:48.782Z,23.60
2018-02-20T12:50:16.350Z,28.27
2018-02-20T12:52:43.906Z,28.50
2018-02-20T12:55:14.140Z,29.60
2018-02-20T12:57:41.982Z,24.97
2018-02-20T13:00:15.340Z,26.23
2018-02-20T13:02:49.106Z,27.97
2018-02-20T13:05:17.399Z,32.40
2018-02-20T13:07:44.963Z,32.07
2018-02-20T13:10:12.527Z,35.50
2018-02-20T13:12:40.075Z,36.37
2018-02-20T13:15:08.566Z,34.27
2018-02-20T13:17:36.114Z,34.57
2018-02-20T13:20:03.667Z,31.37
2018-02-20T13:22:31.214Z,32.77
2018-02-20T13:24:59.507Z,36.17
2018-02-20T13:27:27.049Z,30.47
2018-02-20T13:29:55.324Z,33.67
2018-02-20T13:32:23.694Z,37.60
2018-02-20T13:34:51.943Z,31.83
2018-02-20T13:37:20.601Z,38.33
2018-02-20T13:39:49.041Z,34.27
2018-02-20T13:42:35.675Z,36.87
2018-02-20T13:45:03.243Z,35.90
2018-02-20T13:47:30.796Z,33.10
2018-02-20T13:49:58.341Z,35.37
2018-02-20T13:52:26.476Z,34.43
2018-02-20T13:54:54.031Z,29.50
2018-02-20T13:57:21.572Z,33.90
2018-02-20T13:59:49.056Z,32.67
2018-02-20T14:02:16.531Z,29.40
2018-02-20T14:04:43.994Z,31.27
2018-02-20T14:07:11.462Z,33.67
2018-02-20T14:09:39.686Z,31.87
2018-02-20T14:12:07.179Z,29.13
2018-02-20T14:14:34.631Z,30.97
2018-02-20T14:17:02.095Z,32.10
2018-02-20T14:19:29.565Z,31.30
2018-02-20T14:21:57.790Z,30.07
2018-02-20T14:24:25.272Z,34.80
2018-02-20T14:26:52.732Z,26.47
2018-02-20T14:29:20.219Z,36.60
2018-02-20T14:31:48.446Z,37.37
2018-02-20T14:34:15.920Z,34.30
2018-02-20T14:36:43.378Z,29.07
2018-02-20T14:39:10.854Z,28.60
2018-02-20T14:41:38.323Z,31.30
2018-02-20T14:44:06.559Z,28.40
2018-02-20T14:46:34.023Z,27.40
2018-02-20T14:49:01.500Z,28.87
2018-02-20T14:51:28.962Z,26.87
2018-02-20T14:53:56.436Z,28.33
2018-02-20T14:56:24.656Z,27.50
2018-02-20T14:58:52.130Z,25.13
2018-02-20T15:01:19.599Z,28.33
2018-02-20T15:03:47.081Z,28.83
2018-02-20T15:06:15.306Z,25.67
2018-02-20T15:08:42.783Z,26.17
2018-02-20T15:11:10.246Z,23.97
2018-02-20T15:13:37.718Z,27.27
2018-02-20T15:16:05.187Z,26.80
2018-02-20T15:18:33.423Z,23.80
2018-02-20T15:21:00.917Z,23.17
2018-02-20T15:23:29.143Z,22.23
2018-02-20T15:25:56.614Z,25.03
2018-02-20T15:28:24.152Z,24.03
2018-02-20T15:30:51.619Z,26.63
2018-02-20T15:33:19.095Z,24.93
2018-02-20T15:35:46.564Z,25.53
2018-02-20T15:38:14.040Z,27.37
2018-02-20T15:40:42.271Z,24.57
2018-02-20T15:43:10.521Z,25.33
2018-02-20T15:45:38.080Z,25.03
2018-02-20T15:48:05.575Z,23.03
2018-02-20T15:50:33.029Z,18.53
2018-02-20T15:53:00.516Z,21.37
2018-02-20T15:55:27.984Z,20.93
2018-02-20T15:57:55.450Z,24.93
2018-02-20T16:00:23.994Z,22.13
2018-02-20T16:02:51.464Z,26.97
2018-02-20T16:05:18.921Z,24.13
2018-02-20T16:07:46.419Z,22.43
2018-02-20T16:10:14.655Z,24.10
2018-02-20T16:12:42.113Z,21.10
2018-02-20T16:15:09.588Z,25.23
2018-02-20T16:17:37.043Z,20.33
2018-02-20T16:20:04.532Z,22.77
2018-02-20T16:22:32.012Z,23.93
2018-02-20T16:24:59.501Z,27.20
2018-02-20T16:27:26.979Z,25.03
2018-02-20T16:29:54.462Z,24.70
2018-02-20T16:32:22.712Z,24.03
2018-02-20T16:34:50.205Z,23.63
2018-02-20T16:37:17.717Z,24.20
2018-02-20T16:39:45.194Z,24.23
2018-02-20T16:42:13.462Z,23.98
2018-02-20T16:44:41.030Z,19.60
2018-02-20T16:47:08.497Z,24.03
2018-02-20T16:49:36.755Z,23.63
2018-02-20T16:52:09.607Z,17.27
2018-02-20T16:54:37.091Z,18.65
2018-02-20T16:57:04.590Z,26.97
2018-02-20T16:59:32.071Z,22.02
2018-02-20T17:01:59.746Z,20.77
2018-02-20T17:04:27.453Z,25.05
2018-02-20T17:06:55.998Z,21.43
2018-02-20T17:09:23.498Z,24.03
2018-02-20T17:11:51.738Z,18.37
2018-02-20T17:14:19.217Z,20.23
2018-02-20T17:16:46.697Z,22.35
2018-02-20T17:19:14.951Z,22.08
2018-02-20T17:24:58.408Z,18.65
2018-02-20T17:27:25.876Z,18.50
2018-02-20T17:29:54.106Z,18.42
2018-02-20T17:32:21.565Z,18.77
2018-02-20T17:34:49.069Z,20.00
2018-02-20T17:37:17.330Z,17.20
2018-02-20T17:39:44.782Z,15.77
2018-02-20T17:42:15.667Z,18.67
2018-02-20T17:44:43.129Z,19.98
2018-02-20T17:47:10.599Z,20.23
2018-02-20T17:49:38.054Z,20.50
2018-02-20T17:52:05.572Z,20.05
2018-02-20T17:54:33.808Z,22.95
2018-02-20T17:57:01.260Z,14.60
2018-02-20T17:59:28.717Z,22.35
2018-02-20T18:01:56.188Z,21.27
2018-02-20T18:04:23.659Z,19.75
2018-02-20T18:06:51.152Z,22.33
2018-02-20T18:09:19.377Z,19.40
2018-02-20T18:11:46.832Z,16.77
2018-02-20T18:14:14.352Z,18.60
2018-02-20T18:16:41.756Z,15.32
2018-02-20T18:19:09.225Z,17.35
2018-02-20T18:21:36.691Z,17.67
2018-02-20T18:24:04.145Z,19.70
2018-02-20T18:26:35.254Z,14.57
2018-02-20T18:29:02.713Z,18.95
2018-02-20T18:31:30.180Z,14.55
2018-02-20T18:33:57.645Z,17.00
2018-02-20T18:36:25.103Z,17.92
2018-02-20T18:38:52.561Z,17.35
2018-02-20T18:41:20.021Z,22.15
2018-02-20T18:43:47.477Z,17.77
2018-02-20T18:46:15.000Z,23.83
2018-02-20T18:48:42.448Z,20.73
2018-02-20T18:51:09.909Z,17.37
2018-02-20T18:53:37.369Z,16.75
2018-02-20T18:56:04.843Z,18.58
2018-02-20T18:58:32.291Z,15.90
2018-02-20T19:00:59.754Z,14.27
2018-02-20T19:03:27.215Z,16.70
2018-02-20T19:05:54.683Z,17.08
2018-02-20T19:08:22.130Z,18.17
2018-02-20T19:10:49.590Z,15.82
2018-02-20T19:13:17.047Z,15.63
2018-02-20T19:15:44.504Z,14.57
2018-02-20T19:18:11.962Z,13.35
2018-02-20T19:20:39.439Z,16.05
2018-02-20T19:23:06.890Z,15.25
2018-02-20T19:25:34.354Z,15.32
2018-02-20T19:28:01.816Z,17.37
2018-02-20T19:30:29.404Z,15.25
2018-02-20T19:32:57.706Z,15.15
2018-02-20T19:35:25.177Z,20.40
2018-02-20T19:37:52.624Z,17.25
2018-02-20T19:40:20.088Z,16.55
2018-02-20T19:42:47.548Z,18.52
2018-02-20T19:45:14.994Z,15.82
2018-02-20T19:47:42.448Z,12.10
2018-02-20T19:50:09.928Z,15.27
2018-02-20T19:52:37.373Z,14.55
2018-02-20T19:55:04.831Z,12.77
2018-02-20T19:57:32.289Z,18.15
2018-02-20T19:59:59.732Z,15.30
2018-02-20T20:02:27.965Z,17.70
2018-02-20T20:04:55.423Z,16.30
2018-02-20T20:07:22.894Z,20.05
2018-02-20T20:12:47.466Z,20.90
2018-02-20T20:15:14.938Z,16.87
2018-02-20T20:23:37.597Z,19.90
2018-02-20T20:26:05.070Z,18.37
2018-02-20T20:28:32.548Z,17.33
2018-02-20T20:31:00.014Z,16.05
2018-02-20T20:33:29.384Z,16.37
2018-02-20T20:35:56.854Z,22.10
2018-02-20T20:38:24.315Z,20.17
2018-02-20T20:40:51.797Z,18.75
2018-02-20T20:43:19.260Z,15.45
2018-02-20T20:45:46.707Z,15.48
2018-02-20T20:48:14.174Z,19.37
2018-02-20T20:50:41.643Z,19.55
2018-02-20T20:53:09.104Z,18.40
2018-02-20T20:55:36.563Z,21.00
2018-02-20T20:58:04.018Z,17.10
2018-02-20T21:00:31.481Z,18.30
2018-02-20T21:02:58.948Z,20.58
2018-02-20T21:05:27.170Z,20.40
2018-02-20T21:07:54.636Z,19.50
2018-02-20T21:10:22.106Z,28.33
2018-02-20T21:12:49.821Z,16.58
2018-02-20T21:15:17.284Z,22.62
2018-02-20T21:17:44.763Z,21.80
2018-02-20T21:20:12.226Z,22.27
2018-02-20T21:22:39.688Z,17.80
2018-02-20T21:25:07.141Z,19.27
2018-02-20T21:27:34.610Z,17.92
2018-02-20T21:30:02.080Z,26.80
2018-02-20T21:32:31.447Z,19.92
2018-02-20T21:34:58.922Z,19.15
2018-02-20T21:37:26.377Z,17.35
2018-02-20T21:39:53.841Z,20.08
2018-02-20T21:42:21.309Z,16.77
2018-02-20T21:44:48.777Z,17.45
2018-02-20T21:47:16.340Z,17.60
2018-02-20T21:49:43.809Z,23.50
2018-02-20T21:52:11.275Z,16.95
2018-02-20T21:54:39.501Z,20.10
2018-02-20T21:57:06.968Z,16.98
2018-02-20T21:59:34.433Z,15.57
2018-02-20T22:02:01.896Z,18.95
2018-02-20T22:04:29.393Z,20.12
2018-02-20T22:06:57.614Z,18.23
2018-02-20T22:09:25.133Z,18.23
2018-02-20T22:11:53.420Z,16.52
2018-02-20T22:14:20.867Z,20.05
2018-02-20T22:16:49.166Z,19.77
2018-02-20T22:19:16.741Z,17.98
2018-02-20T22:21:44.298Z,15.98
2018-02-20T22:24:11.934Z,14.52
2018-02-20T22:26:39.417Z,18.55
2018-02-20T22:29:06.984Z,17.02
2018-02-20T22:31:34.533Z,14.55
2018-02-20T22:34:02.154Z,17.87
2018-02-20T22:36:30.444Z,17.50
2018-02-20T22:38:57.997Z,21.62
2018-02-20T22:41:26.321Z,21.12
2018-02-20T22:43:53.865Z,19.80
2018-02-20T22:46:22.168Z,15.82
2018-02-20T22:48:50.246Z,20.02
2018-02-20T22:51:18.928Z,15.23
2018-02-20T22:53:46.534Z,17.37
2018-02-20T22:56:14.129Z,24.20
2018-02-20T22:58:41.612Z,18.55
2018-02-20T23:01:09.255Z,20.77
2018-02-20T23:03:36.875Z,22.27
2018-02-20T23:06:05.952Z,19.65
2018-02-20T23:08:33.447Z,17.12
2018-02-20T23:11:01.015Z,19.75
2018-02-20T23:13:28.576Z,14.60
2018-02-20T23:15:56.140Z,18.75
2018-02-20T23:18:23.717Z,22.67
2018-02-20T23:20:51.306Z,22.37
2018-02-20T23:23:18.869Z,16.67
2018-02-20T23:25:46.458Z,18.08
2018-02-20T23:28:13.997Z,17.27
2018-02-20T23:30:44.636Z,16.23
2018-02-20T23:33:12.171Z,18.00
2018-02-20T23:35:39.733Z,17.80
2018-02-20T23:38:07.934Z,18.00
2018-02-20T23:40:36.246Z,18.37
2018-02-20T23:43:03.798Z,14.82
2018-02-20T23:45:31.897Z,19.48
2018-02-20T23:47:59.420Z,20.52
2018-02-20T23:50:27.291Z,18.87
2018-02-20T23:52:58.680Z,15.50
2018-02-20T23:55:26.137Z,19.00
2018-02-20T23:57:53.597Z,17.67
